메인 페이지
METAR-TAF:

METAR-TAF

공항 :

츠바르트노츠 국제공항

예레반, 아르메니아

위도: 40-08-50N, 경도: 044-23-45E, 고도: 865m

현재 날씨관측

예보는 24분 전, 13:30시(UTC)에 발표되었습니다.
서북서19kt, 순간 최대 풍속 33kt
온도 28°C
습도 17%
기압 1015 hPa
시정 10km 이상
고도 4300ft 상공 구름 조금

METAR: UDYZ 051330Z 29019G33KT 9999 FEW043 28/01 Q1015 R09/010070 TEMPO 30030G40KT

시각: 17:54 (13:54 UTC)

예보

예보는 2 시간 52분 전, 11:02시(UTC)에 발표되었습니다.
예보 대상 시간: 05일 12시부터 06일 12시까지 (UTC)
북동6kt
시정 10km 이상
고도 4000ft 상공 구름 보통
일시적
05일 12시부터 05일 18시까지 (UTC)
여러 방향의 바람 16kt, 순간 최대 풍속 26kt
고도 4000ft 상공 구름 많음, 적란운.
뇌우, 약한비

TAF: UDYZ 051102Z 0512/0612 04006KT 9999 SCT040 TEMPO 0512/0518 VRB16G26KT -TSRA BKN040CB

4,000개 이상의 공항 관측 자료 및 예보 (METAR 및 TAF 보고).

지도상에서 검색 가능한 기상관측소가 노란 점과 빨간 점으로 표시되어 있습니다.

기상관측소 명을 보려면 표시 위로 마우스를 이동하세요.

날씨 관측과 예보를 보려면 클릭하세요.

지도 변경 : 확대하려면 엑스 표시가 있는 녹색 버튼, 축소하려면 빼기 표시가 있는 녹색 버튼, 다음 페이지의 지도를 보려면 녹색 화살표를 클릭하세요.


METAR-TAF: